首页
METAR-TAF:

METAR-TAF

机场 :

卡亚尼机场

卡亚尼, 芬兰

纬度: 64-17N, 经度: 027-41E, 海拔: 143米

当前天气观测

该预报发布于26分钟前的22:20 UTC
风速3节,风向
温度 12°C
湿度 94%
气压 1011 hPa
能见度10公里或以上
小雨

METAR: EFKI 262220Z AUTO 17003KT 9999 -RA NSC 12/11 Q1011

时间: 01:46 (22:46 UTC)

预报

该预报发布于5小时和15分钟前的17:31 UTC
预报有效从26日的 18点(UTC)到 26日的 21点(UTC)
风速4节,风向西
能见度10公里或以上
1500米以下无云,无积雨云
几率 30%
从 26日的 18点(UTC)到 26日的 21点(UTC)
少量云层高于2500英尺, 积雨云.

TAF: EFKI 261731Z 2618/2621 28004KT CAVOK PROB30 2618/2621 FEW025CB

超过4000个机场的气象观测和天气预报(METAR&TAF报告)。

可查询的气象台以黄色和红色小点在地图上表示。

将鼠标移到小点上方,可查看气象台名称。

然后点击查看天气观测和预报。

如需切换地图:点击带黑十字的绿色按钮放大地图;点击带横线的绿色按钮缩小地图;或者点击绿色箭头查看邻近地区的地图。


METAR-TAF: